Time;durP1;ratioP1;P1;durP2;ratioP2;P2;SDS_P1;SDS_P2;PMS_P1;PMS_P2;Temp;Humidity;BMP_temperature;BMP_pressure;BME280_temperature;BME280_humidity;BME280_pressure;Samples;Min_cycle;Max_cycle;Signal;HPM_P1;HPM_P2
2022/10/25 00:00:59;;;;;;;10.38;2.00;;;15.00;99.90;;;;;;5072831;28;20522;-46
2022/10/25 00:03:24;;;;;;;5.60;2.70;;;15.00;99.90;;;;;;5076244;28;20028;-40
2022/10/25 00:05:50;;;;;;;9.43;2.42;;;15.10;99.90;;;;;;5071354;28;20439;-40
2022/10/25 00:08:15;;;;;;;5.63;2.47;;;15.10;99.90;;;;;;5069912;28;20511;-39
2022/10/25 00:10:41;;;;;;;6.78;2.15;;;15.10;99.90;;;;;;5071112;28;20032;-39
2022/10/25 00:13:07;;;;;;;5.22;2.92;;;15.10;99.90;;;;;;5081911;28;20017;-38
2022/10/25 00:15:32;;;;;;;11.65;2.67;;;15.10;99.90;;;;;;5073307;28;20553;-38
2022/10/25 00:17:58;;;;;;;4.10;2.35;;;15.10;99.90;;;;;;5068765;28;20020;-39
2022/10/25 00:20:23;;;;;;;9.35;3.33;;;15.10;99.90;;;;;;5072027;28;20497;-40
2022/10/25 00:22:49;;;;;;;10.38;2.67;;;15.10;99.90;;;;;;5071555;28;20074;-40
2022/10/25 00:25:15;;;;;;;5.82;2.55;;;15.10;99.90;;;;;;5071122;28;20548;-40
2022/10/25 00:27:40;;;;;;;7.22;3.65;;;15.10;99.90;;;;;;5071897;28;20469;-39
2022/10/25 00:30:07;;;;;;;8.48;2.83;;;15.10;99.90;;;;;;5073213;28;20481;-40
2022/10/25 00:32:33;;;;;;;9.02;3.33;;;15.10;99.90;;;;;;5071715;28;20355;-41
2022/10/25 00:34:59;;;;;;;6.40;3.03;;;15.10;99.90;;;;;;5071014;28;20104;-40
2022/10/25 00:37:25;;;;;;;10.93;3.58;;;15.10;99.90;;;;;;5071786;28;20459;-30
2022/10/25 00:39:50;;;;;;;9.40;3.20;;;15.10;99.90;;;;;;5070769;28;20028;-31
2022/10/25 00:42:25;;;;;;;13.88;3.30;;;15.10;99.90;;;;;;5072632;28;20038;-30
2022/10/25 00:45:00;;;;;;;10.63;3.60;;;15.10;99.90;;;;;;5076364;28;20028;-32
2022/10/25 00:48:05;;;;;;;10.82;2.85;;;15.10;99.90;;;;;;5056055;28;20508;-31
2022/10/25 00:50:45;;;;;;;9.45;3.08;;;15.10;99.90;;;;;;5056972;28;20552;-36
2022/10/25 00:53:15;;;;;;;9.38;3.47;;;15.10;99.90;;;;;;5069694;28;20045;-31
2022/10/25 00:55:45;;;;;;;6.85;2.65;;;15.10;99.90;;;;;;5071284;28;20037;-31
2022/10/25 00:58:18;;;;;;;6.22;2.83;;;15.10;99.90;;;;;;5069068;28;20021;-42
2022/10/25 01:00:44;;;;;;;7.65;2.55;;;15.20;99.90;;;;;;5070907;28;20610;-37
2022/10/25 01:03:13;;;;;;;7.93;2.75;;;15.10;99.90;;;;;;5071592;28;20052;-40
2022/10/25 01:05:39;;;;;;;8.57;2.85;;;15.10;99.90;;;;;;5070946;28;20100;-31
2022/10/25 01:08:05;;;;;;;6.85;3.20;;;15.10;99.90;;;;;;5073591;28;20053;-32
2022/10/25 01:10:31;;;;;;;6.57;2.95;;;15.10;99.90;;;;;;5071020;28;20439;-32
2022/10/25 01:13:00;;;;;;;16.15;2.85;;;15.20;99.90;;;;;;5070917;28;20074;-31
2022/10/25 01:15:39;;;;;;;4.70;1.90;;;15.10;99.90;;;;;;5072740;28;20210;-52
2022/10/25 01:18:14;;;;;;;8.10;2.25;;;15.10;99.90;;;;;;5073179;28;20020;-32
2022/10/25 01:21:15;;;;;;;8.32;2.20;;;15.10;99.90;;;;;;5078536;28;20048;-42
2022/10/25 01:24:17;;;;;;;6.32;1.90;;;15.00;99.90;;;;;;5069928;28;20041;-40
2022/10/25 01:26:53;;;;;;;6.18;1.45;;;15.00;99.90;;;;;;5075046;28;20491;-40
2022/10/25 01:29:57;;;;;;;5.38;1.70;;;14.90;99.90;;;;;;5073299;28;20056;-32
2022/10/25 01:32:37;;;;;;;13.88;1.65;;;14.90;99.90;;;;;;5073303;28;20032;-37
2022/10/25 01:35:15;;;;;;;22.85;2.97;;;14.90;99.90;;;;;;5072521;28;20035;-31
2022/10/25 01:38:02;;;;;;;7.88;1.33;;;14.90;99.90;;;;;;5070111;28;20478;-31
2022/10/25 01:40:28;;;;;;;;;;;14.90;99.90;;;;;;5067537;28;20031;-68
2022/10/25 01:43:05;;;;;;;6.13;1.50;;;14.90;99.90;;;;;;5074650;28;20364;-31
2022/10/25 01:45:41;;;;;;;9.93;1.70;;;14.80;99.90;;;;;;5090338;28;20388;-33
2022/10/25 01:48:21;;;;;;;10.38;1.55;;;14.80;99.90;;;;;;5077222;28;21130;-37
2022/10/25 01:50:47;;;;;;;10.27;1.50;;;14.80;99.90;;;;;;5077432;28;20481;-34
2022/10/25 01:53:13;;;;;;;7.25;1.38;;;14.80;99.90;;;;;;5075084;28;20375;-38
2022/10/25 01:55:52;;;;;;;12.07;2.05;;;14.80;99.90;;;;;;5072261;28;20094;-34
2022/10/25 01:58:49;;;;;;;11.95;1.83;;;14.70;99.90;;;;;;5074625;28;20024;-41
2022/10/25 02:01:39;;;;;;;10.05;1.60;;;14.70;99.90;;;;;;5047055;28;20562;-32
2022/10/25 02:04:19;;;;;;;8.15;1.77;;;14.70;99.90;;;;;;5073492;28;20044;-31
2022/10/25 02:06:58;;;;;;;13.60;1.85;;;14.60;99.90;;;;;;5074472;28;20396;-30
2022/10/25 02:09:36;;;;;;;12.23;1.95;;;14.60;99.90;;;;;;5076145;28;20416;-31
2022/10/25 02:12:05;;;;;;;10.27;1.88;;;14.60;99.90;;;;;;5074047;28;20021;-32
2022/10/25 02:14:37;;;;;;;7.93;2.13;;;14.60;99.90;;;;;;5075299;28;20099;-31
2022/10/25 02:17:18;;;;;;;18.30;2.28;;;14.60;99.90;;;;;;5077535;28;20042;-33
2022/10/25 02:19:50;;;;;;;10.38;2.80;;;14.60;99.90;;;;;;5070704;28;20036;-33
2022/10/25 02:22:20;;;;;;;10.73;1.90;;;14.60;99.90;;;;;;5081176;28;20158;-33
2022/10/25 02:24:47;;;;;;;16.02;2.45;;;14.50;99.90;;;;;;5074040;28;20482;-34
2022/10/25 02:27:15;;;;;;;10.48;2.20;;;14.50;99.90;;;;;;5077154;28;20012;-31
2022/10/25 02:29:41;;;;;;;11.45;2.38;;;14.50;99.90;;;;;;5069153;28;20025;-33
2022/10/25 02:32:07;;;;;;;7.53;2.00;;;14.50;99.90;;;;;;5074465;28;20496;-39
2022/10/25 02:34:33;;;;;;;16.15;2.17;;;14.50;99.90;;;;;;5074098;28;20021;-39
2022/10/25 02:37:00;;;;;;;11.30;1.95;;;14.50;99.90;;;;;;5074367;28;20034;-42
2022/10/25 02:39:27;;;;;;;15.30;2.55;;;14.60;99.90;;;;;;5072569;28;20550;-39
2022/10/25 02:41:53;;;;;;;11.10;2.58;;;14.60;99.90;;;;;;5076117;28;20507;-39
2022/10/25 02:44:19;;;;;;;12.23;1.65;;;14.60;99.90;;;;;;5073572;28;20025;-39
2022/10/25 02:46:47;;;;;;;7.70;1.67;;;14.60;99.90;;;;;;5073573;28;20385;-44
2022/10/25 02:49:13;;;;;;;13.88;1.80;;;14.70;99.90;;;;;;5072772;28;20028;-40
2022/10/25 02:51:38;;;;;;;6.63;1.58;;;14.70;99.90;;;;;;5076769;28;20104;-40
2022/10/25 02:54:04;;;;;;;9.95;1.95;;;14.70;99.90;;;;;;5074091;28;20551;-39
2022/10/25 02:56:30;;;;;;;7.32;1.73;;;14.80;99.90;;;;;;5074264;28;20038;-39
2022/10/25 02:58:56;;;;;;;6.25;1.27;;;14.70;99.90;;;;;;5080312;28;20038;-37
2022/10/25 03:01:23;;;;;;;5.50;1.65;;;14.70;99.90;;;;;;5088610;28;20552;-56
2022/10/25 03:03:49;;;;;;;18.15;1.60;;;14.70;99.90;;;;;;5072976;28;20056;-38
2022/10/25 03:06:15;;;;;;;9.90;1.67;;;14.70;99.90;;;;;;5073559;28;20083;-39
2022/10/25 03:08:41;;;;;;;16.83;2.00;;;14.70;99.90;;;;;;5074253;28;20377;-36
2022/10/25 03:11:11;;;;;;;6.13;1.15;;;14.70;99.90;;;;;;5086462;28;20016;-39
2022/10/25 03:13:37;;;;;;;11.75;1.60;;;14.60;99.90;;;;;;5073508;28;20497;-38
2022/10/25 03:16:03;;;;;;;6.68;1.35;;;14.60;99.90;;;;;;5074084;28;20123;-39
2022/10/25 03:18:28;;;;;;;8.38;1.65;;;14.60;99.90;;;;;;5069989;28;20534;-34
2022/10/25 03:20:59;;;;;;;11.95;1.75;;;14.60;99.90;;;;;;5073574;28;20551;-40
2022/10/25 03:23:25;;;;;;;6.55;1.02;;;14.70;99.90;;;;;;5072303;28;20044;-39
2022/10/25 03:25:56;;;;;;;13.07;1.33;;;14.70;99.90;;;;;;5073007;28;20059;-40
2022/10/25 03:28:22;;;;;;;8.27;1.83;;;14.60;99.90;;;;;;5077163;28;20503;-40
2022/10/25 03:30:48;;;;;;;14.15;1.70;;;14.60;99.90;;;;;;5063700;28;20051;-36
2022/10/25 03:33:14;;;;;;;9.45;1.67;;;14.60;99.90;;;;;;5080392;28;20068;-39
2022/10/25 03:35:39;;;;;;;14.77;1.67;;;14.60;99.90;;;;;;5084004;28;20027;-40
2022/10/25 03:38:05;;;;;;;19.75;1.63;;;14.70;99.90;;;;;;5074412;28;20036;-40
2022/10/25 03:40:49;;;;;;;6.32;1.55;;;14.70;99.90;;;;;;5073189;28;20024;-39
2022/10/25 03:43:15;;;;;;;6.57;1.27;;;14.60;99.90;;;;;;5072765;28;20114;-34
2022/10/25 03:45:40;;;;;;;11.23;2.35;;;14.60;99.90;;;;;;5077733;28;20066;-39
2022/10/25 03:48:06;;;;;;;13.05;2.08;;;14.60;99.90;;;;;;5071949;28;20025;-40
2022/10/25 03:50:32;;;;;;;9.82;1.88;;;14.50;99.90;;;;;;5076030;28;20500;-59
2022/10/25 03:52:59;;;;;;;14.85;3.42;;;14.50;99.90;;;;;;5073574;28;20029;-41
2022/10/25 03:55:24;;;;;;;10.07;1.63;;;14.50;99.90;;;;;;5072201;28;20028;-39
2022/10/25 03:57:50;;;;;;;7.18;2.25;;;14.40;99.90;;;;;;5073990;28;20495;-41
2022/10/25 04:00:15;;;;;;;17.75;2.00;;;14.50;99.90;;;;;;5071426;28;20110;-39
2022/10/25 04:02:41;;;;;;;6.50;1.85;;;14.40;99.90;;;;;;5072351;28;20395;-38
2022/10/25 04:05:07;;;;;;;15.65;2.38;;;14.40;99.90;;;;;;5077199;28;20423;-39
2022/10/25 04:07:33;;;;;;;15.35;2.35;;;14.40;99.90;;;;;;5072120;28;20036;-41
2022/10/25 04:09:58;;;;;;;14.23;1.67;;;14.30;99.90;;;;;;5071687;28;20017;-40
2022/10/25 04:12:24;;;;;;;17.73;2.40;;;14.30;99.90;;;;;;5072751;28;20026;-39
2022/10/25 04:14:50;;;;;;;14.07;1.90;;;14.30;99.90;;;;;;5073555;28;20024;-42
2022/10/25 04:17:15;;;;;;;15.77;2.90;;;14.30;99.90;;;;;;5070268;28;20036;-39
2022/10/25 04:19:41;;;;;;;7.22;1.85;;;14.40;99.90;;;;;;5071408;28;20388;-38
2022/10/25 04:22:06;;;;;;;5.68;1.88;;;14.30;99.90;;;;;;5072478;28;20100;-39
2022/10/25 04:24:32;;;;;;;13.20;2.22;;;14.40;99.90;;;;;;5071521;28;20056;-39
2022/10/25 04:26:58;;;;;;;9.27;1.77;;;14.40;99.90;;;;;;5071912;28;20532;-39
2022/10/25 04:29:23;;;;;;;8.25;1.52;;;14.30;99.90;;;;;;5073852;28;20119;-39
2022/10/25 04:31:49;;;;;;;13.02;3.10;;;14.30;99.90;;;;;;5070364;28;20036;-46
2022/10/25 04:34:14;;;;;;;7.40;1.88;;;14.30;99.90;;;;;;5073883;28;20024;-40
2022/10/25 04:36:41;;;;;;;7.60;1.67;;;14.20;99.90;;;;;;5071018;28;20158;-33
2022/10/25 04:39:07;;;;;;;8.70;2.20;;;14.20;99.90;;;;;;5070925;28;20017;-40
2022/10/25 04:41:32;;;;;;;9.05;2.10;;;14.20;99.90;;;;;;5072137;28;20039;-40
2022/10/25 04:43:58;;;;;;;19.15;2.20;;;14.20;99.90;;;;;;5078788;28;20512;-38
2022/10/25 04:46:23;;;;;;;11.02;2.30;;;14.10;99.90;;;;;;5072494;28;20017;-39
2022/10/25 04:48:49;;;;;;;7.47;1.95;;;14.10;99.90;;;;;;5073229;28;20021;-32
2022/10/25 04:51:15;;;;;;;6.47;2.08;;;14.10;99.90;;;;;;5079087;28;20439;-31
2022/10/25 04:53:41;;;;;;;7.80;1.73;;;14.10;99.90;;;;;;5072900;28;20036;-30
2022/10/25 04:56:09;;;;;;;7.32;1.85;;;14.10;99.90;;;;;;5074753;28;20040;-33
2022/10/25 04:58:35;;;;;;;13.50;3.50;;;14.10;99.90;;;;;;5072377;28;20119;-34
2022/10/25 05:01:05;;;;;;;13.57;2.08;;;14.10;99.90;;;;;;5088092;28;20195;-39
2022/10/25 05:03:31;;;;;;;14.13;2.25;;;14.20;99.90;;;;;;5076314;28;20035;-32
2022/10/25 05:06:08;;;;;;;9.23;2.92;;;14.20;99.90;;;;;;5075340;28;20536;-40
2022/10/25 05:08:35;;;;;;;8.88;2.03;;;14.30;99.90;;;;;;5071527;28;20103;-38
2022/10/25 05:11:01;;;;;;;8.60;2.33;;;14.30;99.90;;;;;;5086800;28;20464;-41
2022/10/25 05:13:29;;;;;;;5.82;2.33;;;14.30;99.90;;;;;;5089684;28;20094;-40
2022/10/25 05:15:58;;;;;;;7.97;2.92;;;14.40;99.90;;;;;;5078043;28;20633;-31
2022/10/25 05:18:24;;;;;;;14.55;2.15;;;14.40;99.90;;;;;;5075059;28;20111;-32
2022/10/25 05:20:52;;;;;;;10.88;3.17;;;14.40;99.90;;;;;;5073754;28;20472;-51
2022/10/25 05:23:18;;;;;;;8.23;2.83;;;14.30;99.90;;;;;;5073341;28;20071;-33
2022/10/25 05:25:43;;;;;;;10.73;3.13;;;14.30;99.90;;;;;;5074692;28;20464;-31
2022/10/25 05:28:09;;;;;;;8.50;3.20;;;14.30;99.90;;;;;;5076489;28;20025;-31
2022/10/25 05:30:38;;;;;;;10.88;3.53;;;14.40;99.90;;;;;;5081316;28;20019;-32
2022/10/25 05:33:04;;;;;;;18.17;4.07;;;14.40;99.90;;;;;;5065419;28;20056;-32
2022/10/25 05:35:29;;;;;;;14.15;3.38;;;14.40;99.90;;;;;;5070472;28;20075;-31
2022/10/25 05:37:55;;;;;;;11.48;3.85;;;14.40;99.90;;;;;;5067462;28;20032;-31
2022/10/25 05:40:20;;;;;;;7.40;3.75;;;14.40;99.90;;;;;;5077918;28;20495;-33
2022/10/25 05:42:46;;;;;;;14.75;4.20;;;14.40;99.90;;;;;;5073996;28;20111;-55
2022/10/25 05:45:11;;;;;;;7.03;3.35;;;14.50;99.90;;;;;;5086800;28;20028;-32
2022/10/25 05:47:37;;;;;;;9.15;3.70;;;14.50;99.90;;;;;;5076764;28;20107;-40
2022/10/25 05:50:03;;;;;;;17.05;4.47;;;14.60;99.90;;;;;;5078283;28;20503;-40
2022/10/25 05:52:28;;;;;;;8.90;3.13;;;14.50;99.90;;;;;;5072455;28;20020;-40
2022/10/25 05:54:54;;;;;;;8.50;3.00;;;14.50;99.90;;;;;;5076636;28;20060;-41
2022/10/25 05:57:19;;;;;;;12.63;2.92;;;14.60;99.90;;;;;;5075172;28;20028;-40
2022/10/25 05:59:45;;;;;;;10.27;4.03;;;14.50;99.90;;;;;;5073536;28;20142;-39
2022/10/25 06:02:11;;;;;;;7.32;2.92;;;14.60;99.90;;;;;;5077494;28;20024;-40
2022/10/25 06:04:36;;;;;;;5.57;2.75;;;14.60;99.90;;;;;;5074807;28;20493;-43
2022/10/25 06:07:02;;;;;;;8.25;2.90;;;14.60;99.90;;;;;;5060573;28;20065;-39
2022/10/25 06:09:27;;;;;;;7.85;3.15;;;14.60;99.90;;;;;;5069725;28;20033;-38
2022/10/25 06:11:53;;;;;;;10.48;3.30;;;14.60;99.90;;;;;;5073639;28;20550;-41
2022/10/25 06:14:19;;;;;;;10.65;2.95;;;14.60;99.90;;;;;;5074792;28;20039;-41
2022/10/25 06:16:44;;;;;;;14.48;2.80;;;14.50;99.90;;;;;;5072947;28;20545;-40
2022/10/25 06:19:10;;;;;;;4.32;2.55;;;14.50;99.90;;;;;;5073234;28;20138;-41
2022/10/25 06:21:36;;;;;;;4.50;2.40;;;14.50;99.90;;;;;;5073912;28;20531;-41
2022/10/25 06:24:03;;;;;;;12.73;3.03;;;14.50;99.90;;;;;;5072538;28;20107;-41
2022/10/25 06:26:29;;;;;;;8.25;3.13;;;14.40;99.90;;;;;;5074528;28;20067;-40
2022/10/25 06:28:58;;;;;;;8.70;3.45;;;14.40;99.90;;;;;;5078258;28;20021;-39
2022/10/25 06:31:24;;;;;;;10.10;3.53;;;14.40;99.90;;;;;;5084020;28;20483;-40
2022/10/25 06:33:51;;;;;;;10.18;3.33;;;14.30;99.90;;;;;;5072126;28;20473;-40
2022/10/25 06:36:18;;;;;;;9.60;3.38;;;14.40;99.90;;;;;;5073776;28;20106;-39
2022/10/25 06:38:45;;;;;;;7.75;2.75;;;14.40;99.90;;;;;;5076081;28;20036;-45
2022/10/25 06:41:13;;;;;;;15.73;3.85;;;14.40;99.90;;;;;;5078948;28;20527;-40
2022/10/25 06:43:39;;;;;;;3.75;2.90;;;14.40;99.90;;;;;;5077826;28;20495;-40
2022/10/25 06:46:17;;;;;;;11.45;3.30;;;14.40;99.90;;;;;;5075904;28;20021;-44
2022/10/25 06:48:42;;;;;;;12.73;4.50;;;14.40;99.90;;;;;;5072743;28;20495;-39
2022/10/25 06:51:08;;;;;;;11.30;4.70;;;14.40;99.90;;;;;;5084036;28;20016;-53
2022/10/25 06:53:35;;;;;;;8.45;3.50;;;14.40;99.90;;;;;;5073460;28;20519;-40
2022/10/25 06:56:02;;;;;;;6.20;3.28;;;14.40;99.90;;;;;;5073017;28;20103;-40
2022/10/25 06:58:31;;;;;;;12.18;3.47;;;14.40;99.90;;;;;;5074609;28;20016;-39
2022/10/25 07:01:06;;;;;;;5.55;3.55;;;14.30;99.90;;;;;;5072822;28;20047;-38
2022/10/25 07:03:35;;;;;;;8.25;3.50;;;14.30;99.90;;;;;;5069105;28;20025;-40
2022/10/25 07:06:08;;;;;;;10.98;3.58;;;14.40;99.90;;;;;;5069527;28;20048;-41
2022/10/25 07:08:35;;;;;;;8.85;3.97;;;14.30;99.90;;;;;;5069566;28;20553;-34
2022/10/25 07:11:01;;;;;;;19.73;4.00;;;14.40;99.90;;;;;;5064609;28;20059;-32
2022/10/25 07:13:28;;;;;;;7.68;3.42;;;14.40;99.90;;;;;;5067887;28;20030;-31
2022/10/25 07:16:01;;;;;;;14.90;4.33;;;14.30;99.90;;;;;;5070567;28;20422;-32
2022/10/25 07:18:27;;;;;;;9.30;3.97;;;14.30;99.90;;;;;;5071977;28;20028;-36
2022/10/25 07:20:58;;;;;;;11.13;3.85;;;14.40;99.90;;;;;;5071485;28;20025;-34
2022/10/25 07:23:23;;;;;;;15.30;4.78;;;14.40;99.90;;;;;;5071036;28;20458;-32
2022/10/25 07:25:49;;;;;;;10.68;4.38;;;14.50;99.90;;;;;;5070014;28;20020;-36
2022/10/25 07:28:14;;;;;;;11.30;3.97;;;14.50;99.90;;;;;;5071708;28;20070;-36
2022/10/25 07:30:45;;;;;;;9.70;3.83;;;14.60;99.90;;;;;;5072598;28;20477;-34
2022/10/25 07:33:11;;;;;;;8.90;3.80;;;14.70;99.90;;;;;;5072129;28;20461;-31
2022/10/25 07:35:43;;;;;;;13.70;4.05;;;14.70;99.90;;;;;;5072023;28;20017;-33
2022/10/25 07:38:08;;;;;;;8.35;3.75;;;14.70;99.90;;;;;;5071571;28;20135;-31
2022/10/25 07:40:34;;;;;;;12.38;4.47;;;14.80;99.90;;;;;;5073005;28;20033;-34
2022/10/25 07:42:59;;;;;;;8.73;3.92;;;14.80;99.90;;;;;;5075685;28;20097;-34
2022/10/25 07:45:25;;;;;;;12.82;4.53;;;14.80;99.90;;;;;;5083306;28;20025;-49
2022/10/25 07:47:51;;;;;;;14.05;4.65;;;14.70;99.90;;;;;;5072751;28;20021;-36
2022/10/25 07:50:18;;;;;;;8.80;3.90;;;14.80;99.90;;;;;;5073142;28;20380;-35
2022/10/25 07:52:44;;;;;;;9.32;4.70;;;14.80;99.90;;;;;;5070485;28;20029;-37
2022/10/25 07:55:10;;;;;;;11.85;4.43;;;14.90;99.90;;;;;;5074323;28;20051;-31
2022/10/25 07:57:35;;;;;;;8.98;4.53;;;14.80;99.90;;;;;;5062099;28;20180;-36
2022/10/25 08:00:01;;;;;;;8.55;4.97;;;14.90;99.90;;;;;;5071124;28;20029;-32
2022/10/25 08:02:27;;;;;;;12.63;4.47;;;14.80;99.90;;;;;;5069356;28;20111;-30
2022/10/25 08:04:52;;;;;;;10.98;4.70;;;14.90;99.90;;;;;;5070356;28;20385;-31
2022/10/25 08:07:18;;;;;;;15.82;4.80;;;14.90;99.90;;;;;;5068341;28;20160;-33
2022/10/25 08:09:43;;;;;;;13.70;5.97;;;14.90;99.90;;;;;;5069960;28;20032;-33
2022/10/25 08:12:09;;;;;;;6.40;4.40;;;14.90;99.90;;;;;;5070734;28;20397;-31
2022/10/25 08:14:35;;;;;;;16.33;5.40;;;15.00;99.90;;;;;;5072463;28;20025;-31
2022/10/25 08:17:00;;;;;;;13.90;5.20;;;15.00;99.90;;;;;;5075328;28;20028;-34
2022/10/25 08:19:26;;;;;;;14.68;5.47;;;15.10;99.90;;;;;;5087646;28;20037;-32
2022/10/25 08:21:51;;;;;;;12.93;4.57;;;15.10;99.90;;;;;;5064832;28;20020;-30
2022/10/25 08:24:17;;;;;;;10.10;4.78;;;15.20;99.90;;;;;;5075688;28;20090;-42
2022/10/25 08:26:42;;;;;;;8.70;4.22;;;15.20;99.90;;;;;;5089587;28;20500;-46
2022/10/25 08:29:08;;;;;;;7.35;3.88;;;15.10;99.90;;;;;;5085909;28;20029;-36
2022/10/25 08:31:35;;;;;;;10.48;4.25;;;15.20;99.90;;;;;;5073951;28;20108;-31
2022/10/25 08:34:00;;;;;;;11.77;4.07;;;15.30;99.90;;;;;;5075469;28;20025;-31
2022/10/25 08:36:26;;;;;;;13.80;4.35;;;15.30;99.90;;;;;;5083410;28;20028;-30
2022/10/25 08:38:52;;;;;;;8.93;4.68;;;15.20;99.90;;;;;;5077410;28;20492;-33
2022/10/25 08:41:24;;;;;;;8.82;4.40;;;15.20;99.90;;;;;;5076383;28;20021;-57
2022/10/25 08:44:11;;;;;;;18.15;4.65;;;15.20;99.90;;;;;;5077470;28;20054;-52
2022/10/25 08:46:52;;;;;;;12.23;5.38;;;15.20;99.90;;;;;;5096625;28;20035;-31
2022/10/25 08:49:40;;;;;;;10.55;4.57;;;15.20;99.90;;;;;;5078367;28;20028;-33
2022/10/25 08:52:05;;;;;;;;;;;15.30;99.90;;;;;;5076664;28;20031;-31
2022/10/25 08:54:36;;;;;;;8.02;4.18;;;15.30;99.90;;;;;;5073820;28;19908;-31
2022/10/25 08:57:11;;;;;;;8.55;4.53;;;15.40;99.90;;;;;;5072297;28;20598;-36
2022/10/25 08:59:40;;;;;;;12.63;4.13;;;15.50;99.90;;;;;;5071102;28;20393;-31
2022/10/25 09:02:20;;;;;;;12.50;4.63;;;15.60;99.90;;;;;;5070731;28;20021;-32
2022/10/25 09:04:49;;;;;;;7.93;4.15;;;15.70;99.90;;;;;;5070082;28;20028;-33
2022/10/25 09:07:26;;;;;;;6.97;4.18;;;15.80;99.90;;;;;;5073760;28;20047;-31
2022/10/25 09:10:03;;;;;;;;;;;15.70;99.90;;;;;;5072279;28;20024;-30
2022/10/25 09:12:47;;;;;;;4.93;3.95;;;15.70;99.90;;;;;;5072028;28;20377;-33
2022/10/25 09:15:19;;;;;;;6.47;4.65;;;15.70;99.90;;;;;;5074925;28;20025;-31
2022/10/25 09:17:50;;;;;;;6.65;3.50;;;15.70;99.90;;;;;;5075662;28;20090;-31
2022/10/25 09:20:20;;;;;;;11.27;4.07;;;15.80;99.90;;;;;;5072957;28;20497;-30
2022/10/25 09:22:56;;;;;;;5.18;3.45;;;15.90;99.90;;;;;;5081967;28;20037;-33
2022/10/25 09:25:45;;;;;;;12.23;3.42;;;15.90;99.90;;;;;;5073700;28;20534;-31
2022/10/25 09:28:24;;;;;;;10.90;4.82;;;16.00;99.90;;;;;;5058378;28;20041;-32
2022/10/25 09:30:51;;;;;;;12.10;3.78;;;16.10;99.90;;;;;;5068809;28;20135;-30
2022/10/25 09:33:21;;;;;;;4.35;3.75;;;16.20;99.90;;;;;;5073572;28;20033;-31
2022/10/25 09:35:58;;;;;;;13.93;4.43;;;16.30;99.90;;;;;;5074476;28;20032;-37
2022/10/25 09:38:33;;;;;;;14.15;4.57;;;16.30;99.90;;;;;;5078371;28;20031;-33
2022/10/25 09:41:14;;;;;;;10.35;5.03;;;16.20;99.90;;;;;;5055276;28;20535;-37
2022/10/25 09:43:51;;;;;;;12.90;4.55;;;16.30;99.90;;;;;;5074931;28;20559;-34
2022/10/25 09:46:27;;;;;;;10.03;3.93;;;16.40;99.90;;;;;;5075674;28;20028;-37
2022/10/25 09:49:04;;;;;;;15.73;4.55;;;16.50;99.90;;;;;;5069498;28;20618;-34
2022/10/25 09:52:05;;;;;;;7.23;3.47;;;16.50;99.90;;;;;;5077892;28;20456;-34
2022/10/25 09:54:48;;;;;;;9.07;3.45;;;16.50;99.90;;;;;;5066342;28;20492;-45
2022/10/25 09:57:13;;;;;;;11.25;3.55;;;16.50;99.90;;;;;;5084581;28;20507;-31
2022/10/25 09:59:39;;;;;;;8.57;4.00;;;16.40;99.90;;;;;;5071757;28;20028;-34
2022/10/25 10:02:05;;;;;;;6.55;4.03;;;16.30;99.90;;;;;;5069151;28;20036;-33
2022/10/25 10:04:36;;;;;;;12.52;4.03;;;16.20;99.90;;;;;;5062005;28;20028;-36
2022/10/25 10:07:10;;;;;;;9.15;3.40;;;16.10;99.90;;;;;;5060812;28;20048;-30
2022/10/25 10:12:55;;;;;;;11.07;4.70;;;16.00;99.90;;;;;;5067721;28;20106;-34
2022/10/25 10:15:26;;;;;;;11.13;5.00;;;15.90;99.90;;;;;;5052408;28;20082;-30
2022/10/25 10:18:28;;;;;;;12.00;4.97;;;15.90;99.90;;;;;;5083625;28;20048;-31
2022/10/25 10:21:11;;;;;;;14.55;4.72;;;16.00;99.90;;;;;;5081648;28;20020;-33
2022/10/25 10:23:45;;;;;;;14.40;5.50;;;16.10;99.90;;;;;;5071064;28;20032;-30
2022/10/25 10:26:21;;;;;;;11.13;4.65;;;16.20;99.90;;;;;;5075902;28;20013;-36
2022/10/25 10:28:52;;;;;;;11.32;5.30;;;16.30;99.90;;;;;;5078688;28;20078;-31
2022/10/25 10:31:18;;;;;;;6.70;4.20;;;16.50;99.90;;;;;;5075852;28;20059;-36
2022/10/25 10:33:50;;;;;;;11.20;5.05;;;16.70;99.90;;;;;;5073943;28;20063;-33
2022/10/25 10:36:26;;;;;;;13.10;5.07;;;16.80;99.90;;;;;;5082074;28;20038;-33
2022/10/25 10:38:53;;;;;;;11.00;4.82;;;16.80;99.90;;;;;;5071943;28;20028;-34
2022/10/25 10:41:22;;;;;;;12.48;6.03;;;16.80;99.90;;;;;;5072840;28;20186;-34
2022/10/25 10:43:48;;;;;;;10.00;5.00;;;16.70;99.90;;;;;;5061707;28;20380;-30
2022/10/25 10:46:16;;;;;;;8.40;4.82;;;16.70;99.90;;;;;;5064641;28;20024;-31
2022/10/25 10:48:44;;;;;;;14.43;5.07;;;16.60;99.90;;;;;;5062075;28;20515;-47
2022/10/25 10:51:19;;;;;;;9.00;5.43;;;16.60;99.90;;;;;;5062337;28;20029;-38
2022/10/25 10:53:45;;;;;;;7.70;4.47;;;16.60;99.90;;;;;;5064954;28;20021;-59
2022/10/25 10:56:19;;;;;;;15.25;4.93;;;16.70;99.90;;;;;;5066283;28;20542;-33
2022/10/25 10:58:49;;;;;;;13.55;5.38;;;16.70;99.90;;;;;;5064515;28;20024;-36
2022/10/25 11:01:28;;;;;;;13.40;5.32;;;16.70;99.90;;;;;;5063760;28;20439;-32
2022/10/25 11:03:58;;;;;;;14.10;4.85;;;16.70;99.90;;;;;;5058938;28;20020;-35
2022/10/25 11:06:28;;;;;;;14.43;5.07;;;16.60;99.90;;;;;;5065456;28;20128;-31
2022/10/25 11:09:11;;;;;;;10.02;4.35;;;16.60;99.90;;;;;;5061589;28;20063;-34
2022/10/25 11:11:37;;;;;;;21.08;5.65;;;16.60;99.90;;;;;;5065062;28;20052;-32
2022/10/25 11:14:18;;;;;;;10.57;4.18;;;16.50;99.90;;;;;;5063551;28;20094;-39
2022/10/25 11:16:47;;;;;;;7.95;3.65;;;16.50;99.90;;;;;;5064569;28;20035;-35
2022/10/25 11:19:25;;;;;;;8.32;4.15;;;16.70;99.90;;;;;;5064803;28;20109;-33
2022/10/25 11:22:36;;;;;;;6.50;3.42;;;16.80;99.90;;;;;;5062724;28;20036;-44
2022/10/25 11:25:19;;;;;;;12.18;4.40;;;16.90;99.90;;;;;;5047572;28;20858;-31
2022/10/25 11:28:15;;;;;;;9.38;3.25;;;17.00;99.90;;;;;;5067065;28;20066;-33
2022/10/25 11:30:59;;;;;;;14.35;2.47;;;17.20;99.90;;;;;;5063475;28;20561;-40
2022/10/25 11:33:28;;;;;;;11.00;2.90;;;17.40;99.90;;;;;;5067576;28;20047;-44
2022/10/25 11:36:09;;;;;;;13.38;3.03;;;17.70;99.90;;;;;;5065995;28;20029;-42
2022/10/25 11:39:01;;;;;;;2.92;2.47;;;17.80;99.90;;;;;;5068112;28;20500;-38
2022/10/25 11:41:45;;;;;;;10.55;2.58;;;17.80;99.90;;;;;;5064734;28;20029;-36
2022/10/25 11:44:40;;;;;;;8.23;2.30;;;17.90;99.90;;;;;;5063384;28;20071;-34
2022/10/25 11:47:24;;;;;;;3.03;2.70;;;18.00;99.90;;;;;;5064064;28;20020;-39
2022/10/25 11:50:09;;;;;;;7.50;2.30;;;18.00;99.90;;;;;;5064556;28;20036;-47
2022/10/25 11:52:56;;;;;;;9.23;2.38;;;17.90;99.90;;;;;;5064933;28;20127;-43
2022/10/25 11:58:43;;;;;;;13.65;2.20;;;17.60;99.90;;;;;;5064471;28;20077;-42
2022/10/25 12:01:30;;;;;;;5.97;2.25;;;17.50;99.90;;;;;;5063586;28;20118;-40
2022/10/25 12:04:15;;;;;;;8.13;4.18;;;17.40;99.90;;;;;;5063884;28;20566;-40
2022/10/25 12:07:14;;;;;;;7.03;2.55;;;17.40;99.90;;;;;;5063132;28;20423;-41
2022/10/25 12:10:07;;;;;;;4.15;2.60;;;17.40;99.90;;;;;;5063486;28;20024;-34
2022/10/25 12:12:48;;;;;;;7.10;3.42;;;17.30;99.90;;;;;;5063073;28;20020;-48
2022/10/25 12:15:20;;;;;;;7.03;3.05;;;17.30;99.90;;;;;;5064190;28;20029;-41
2022/10/25 12:17:47;;;;;;;7.30;3.38;;;17.30;99.90;;;;;;5058095;28;20032;-46
2022/10/25 12:20:22;;;;;;;14.07;4.50;;;17.50;99.90;;;;;;5070647;28;20104;-36
2022/10/25 12:22:50;;;;;;;5.03;2.88;;;17.70;99.90;;;;;;5070743;28;20035;-35
2022/10/25 12:25:38;;;;;;;7.57;3.13;;;17.70;99.90;;;;;;5074322;28;20357;-37
2022/10/25 12:28:24;;;;;;;10.77;3.17;;;17.70;99.90;;;;;;5066291;28;20017;-34
2022/10/25 12:30:56;;;;;;;4.57;2.60;;;17.80;99.90;;;;;;5065293;28;20078;-35
2022/10/25 12:33:35;;;;;;;5.65;2.70;;;17.80;99.90;;;;;;5063221;28;20024;-32
2022/10/25 12:36:06;;;;;;;11.30;3.10;;;17.70;99.90;;;;;;5063329;28;20029;-33
2022/10/25 12:38:39;;;;;;;10.20;3.30;;;17.60;99.90;;;;;;5060777;28;20012;-39
2022/10/25 12:41:16;;;;;;;7.65;2.78;;;17.60;99.90;;;;;;5062153;28;20024;-37
2022/10/25 12:43:59;;;;;;;11.55;2.55;;;17.80;99.90;;;;;;5070762;28;20024;-37
2022/10/25 12:46:59;;;;;;;12.32;3.80;;;18.00;99.90;;;;;;5068123;28;20036;-34
2022/10/25 12:49:35;;;;;;;10.45;3.00;;;18.20;99.90;;;;;;5069634;28;20099;-41
2022/10/25 12:52:49;;;;;;;10.05;3.92;;;18.10;99.90;;;;;;5062613;28;20469;-38
2022/10/25 12:55:31;;;;;;;5.82;2.50;;;18.00;99.90;;;;;;5058769;28;20040;-38
2022/10/25 12:58:09;;;;;;;9.70;2.58;;;18.10;99.90;;;;;;5066722;28;20021;-31
2022/10/25 13:00:44;;;;;;;9.88;2.95;;;18.20;99.90;;;;;;5067979;28;20017;-33
2022/10/25 13:03:34;;;;;;;7.75;2.90;;;18.30;99.90;;;;;;5068795;28;20025;-35
2022/10/25 13:06:24;;;;;;;11.82;2.70;;;18.50;99.90;;;;;;5070331;28;20032;-33
2022/10/25 13:08:50;;;;;;;11.00;3.10;;;18.60;99.90;;;;;;5068250;28;20056;-35
2022/10/25 13:11:16;;;;;;;3.50;2.78;;;18.70;99.90;;;;;;5072218;28;20499;-32